Time;durP1;ratioP1;P1;durP2;ratioP2;P2;SDS_P1;SDS_P2;PMS_P1;PMS_P2;Temp;Humidity;BMP_temperature;BMP_pressure;BME280_temperature;BME280_humidity;BME280_pressure;Samples;Min_cycle;Max_cycle;Signal;HPM_P1;HPM_P2
2022/05/27 07:48:35;;;;;;;;;;;;;;;19.07;63.73;100440.94;1686365;83;20596;-61
2022/05/27 07:51:50;;;;;;;;;;;;;;;19.12;63.47;100438.32;1687805;83;20250;-58
2022/05/27 07:55:04;;;;;;;;;;;;;;;19.14;63.29;100427.28;1715871;82;20538;-56
2022/05/27 07:58:17;;;;;;;;;;;;;;;19.19;63.11;100430.23;1702046;83;20203;-56
2022/05/27 08:01:24;;;;;;;;;;;;;;;19.23;62.94;100430.05;1700182;82;20208;-56
2022/05/27 08:04:35;;;;;;;;;;;;;;;19.26;62.80;100417.13;1703399;82;20216;-55
2022/05/27 08:07:48;;;;;;;;;;;;;;;19.35;62.72;100441.28;1701497;84;20280;-54
2022/05/27 08:10:56;;;;;;;;;;;;;;;19.40;62.48;100430.34;1704286;84;20261;-56
2022/05/27 08:14:05;;;;;;;;;;;;;;;19.45;62.33;100430.50;1696095;82;20223;-58
2022/05/27 08:17:10;;;;;;;;;;;;;;;19.54;62.29;100438.81;1686610;85;20217;-55
2022/05/27 08:20:18;;;;;;;;;;;;;;;19.62;62.05;100441.80;1712137;83;20215;-57
2022/05/27 08:23:24;;;;;;;;;;;;;;;19.65;61.83;100444.11;1702582;83;20220;-56
2022/05/27 08:26:29;;;;;;;;;;;;;;;19.69;61.65;100446.75;1712386;84;20513;-57
2022/05/27 08:29:34;;;;;;;;;;;;;;;19.69;61.38;100435.11;1713472;84;20210;-56
2022/05/27 08:32:40;;;;;;;;;;;;;;;19.69;61.21;100425.38;1713257;84;20585;-56
2022/05/27 08:39:09;;;;;;;;;;;;;;;19.82;61.00;100437.69;1697695;84;20209;-57
2022/05/27 08:42:24;;;;;;;;;;;;;;;19.90;60.83;100417.08;1710680;84;20219;-59
2022/05/27 08:45:39;;;;;;;;;;;;;;;19.96;60.69;100418.91;1710587;84;20244;-58
2022/05/27 08:48:48;;;;;;;;;;;;;;;20.07;60.66;100415.33;1711080;84;20279;-57
2022/05/27 08:52:03;;;;;;;;;;;;;;;20.15;60.51;100417.24;1700088;82;20200;-55
2022/05/27 08:59:26;;;;;;;;;;;;;;;20.22;60.33;100411.58;1682136;85;20254;-59
2022/05/27 09:02:02;;;;;;;;;;;;;;;20.45;60.04;100425.03;1712142;84;20553;-58
2022/05/27 09:05:18;;;;;;;;;;;;;;;20.55;59.78;100411.92;1712428;83;20212;-56
2022/05/27 09:08:30;;;;;;;;;;;;;;;20.62;59.55;100415.42;1710550;84;20572;-57
2022/05/27 09:11:45;;;;;;;;;;;;;;;20.68;59.48;100413.92;1682440;85;20226;-57
2022/05/27 09:14:52;;;;;;;;;;;;;;;20.90;59.36;100408.59;1682363;85;20242;-57
2022/05/27 09:18:29;;;;;;;;;;;;;;;21.11;59.21;100417.77;1681548;85;20222;-57
2022/05/27 09:21:57;;;;;;;;;;;;;;;21.15;58.83;100414.81;1703031;82;20212;-55
2022/05/27 09:25:08;;;;;;;;;;;;;;;21.03;58.53;100398.64;1630135;87;20671;-56
2022/05/27 09:28:27;;;;;;;;;;;;;;;20.99;58.39;100398.84;1687456;84;20272;-54
2022/05/27 09:31:45;;;;;;;;;;;;;;;20.91;58.21;100393.61;1697672;84;20573;-56
2022/05/27 09:34:52;;;;;;;;;;;;;;;20.95;58.09;100389.23;1698663;84;20589;-57
2022/05/27 09:38:01;;;;;;;;;;;;;;;21.04;57.94;100394.76;1676913;85;20261;-56
2022/05/27 09:41:23;;;;;;;;;;;;;;;21.19;57.86;100395.12;1663101;85;20516;-57
2022/05/27 09:44:45;;;;;;;;;;;;;;;21.33;57.70;100384.01;1680749;85;20222;-64
2022/05/27 09:47:56;;;;;;;;;;;;;;;21.51;57.62;100390.81;1614546;89;20253;-62
2022/05/27 09:51:17;;;;;;;;;;;;;;;21.77;57.44;100386.64;1655206;85;20304;-66
2022/05/27 09:54:38;;;;;;;;;;;;;;;21.92;57.15;100378.56;1659218;86;20664;-61
2022/05/27 09:57:48;;;;;;;;;;;;;;;21.92;56.97;100382.75;1687292;83;20282;-61
2022/05/27 10:00:58;;;;;;;;;;;;;;;21.97;56.75;100389.28;1633382;86;20231;-58
2022/05/27 10:04:17;;;;;;;;;;;;;;;22.04;56.59;100386.34;1654783;86;20553;-66
2022/05/27 10:07:25;;;;;;;;;;;;;;;22.08;56.48;100391.70;1691294;83;20669;-63
2022/05/27 10:10:40;;;;;;;;;;;;;;;22.10;56.25;100386.73;1677728;83;20223;-63
2022/05/27 10:13:47;;;;;;;;;;;;;;;22.22;56.19;100383.31;1693525;83;20819;-61
2022/05/27 10:17:19;;;;;;;;;;;;;;;22.29;55.90;100384.55;1666022;84;20210;-66
2022/05/27 10:20:39;;;;;;;;;;;;;;;22.33;55.77;100384.33;1689875;83;20218;-60
2022/05/27 10:23:54;;;;;;;;;;;;;;;22.38;55.52;100381.09;1685150;85;20262;-61
2022/05/27 10:27:25;;;;;;;;;;;;;;;22.34;55.32;100383.25;1684075;84;20222;-57
2022/05/27 10:30:31;;;;;;;;;;;;;;;22.28;55.18;100382.87;1676383;84;20276;-58
2022/05/27 10:33:47;;;;;;;;;;;;;;;22.25;55.07;100379.19;1689705;83;20250;-62
2022/05/27 10:37:03;;;;;;;;;;;;;;;22.28;54.96;100380.91;1689656;83;20217;-61
2022/05/27 10:40:37;;;;;;;;;;;;;;;22.26;54.73;100378.94;1689866;85;20587;-61
2022/05/27 10:43:55;;;;;;;;;;;;;;;22.36;54.64;100383.85;1692078;84;20387;-63
2022/05/27 10:47:04;;;;;;;;;;;;;;;22.34;54.40;100370.70;1692284;85;20216;-60
2022/05/27 10:50:31;;;;;;;;;;;;;;;22.47;54.47;100348.05;1692163;85;20210;-64
2022/05/27 10:53:43;;;;;;;;;;;;;;;22.82;54.55;100356.98;1671338;83;20218;-62
2022/05/27 11:04:15;;;;;;;;;;;;;;;23.24;53.80;100359.58;1672167;84;20266;-65
2022/05/27 11:07:38;;;;;;;;;;;;;;;23.46;53.84;100350.67;1671376;84;20232;-62
2022/05/27 11:10:59;;;;;;;;;;;;;;;23.68;53.71;100340.31;1669303;84;20222;-64
2022/05/27 11:18:22;;;;;;;;;;;;;;;23.73;53.28;100340.92;1651349;85;20644;-63
2022/05/27 11:21:48;;;;;;;;;;;;;;;23.82;53.20;100338.80;1649734;85;20215;-60
2022/05/27 11:25:35;;;;;;;;;;;;;;;23.68;52.79;100349.25;1642051;86;20576;-64
2022/05/27 11:29:12;;;;;;;;;;;;;;;23.38;52.54;100336.61;1648989;85;20236;-66
2022/05/27 11:32:40;;;;;;;;;;;;;;;23.26;52.52;100342.05;1668573;85;20214;-62
2022/05/27 11:36:09;;;;;;;;;;;;;;;23.40;52.49;100337.75;1659188;85;20619;-60
2022/05/27 11:39:29;;;;;;;;;;;;;;;23.34;52.33;100345.78;1646829;86;20222;-62
2022/05/27 11:42:49;;;;;;;;;;;;;;;23.37;52.21;100328.50;1652109;85;20230;-61
2022/05/27 11:46:23;;;;;;;;;;;;;;;23.44;52.18;100336.11;1673332;86;20231;-62
2022/05/27 11:49:56;;;;;;;;;;;;;;;23.61;52.08;100335.47;1668747;86;20215;-62
2022/05/27 11:53:24;;;;;;;;;;;;;;;23.83;51.93;100330.72;1650893;85;20266;-61
2022/05/27 11:56:52;;;;;;;;;;;;;;;23.91;51.63;100317.66;1639768;87;20508;-61
2022/05/27 12:00:13;;;;;;;;;;;;;;;23.94;51.50;100318.52;1660988;86;20615;-61
2022/05/27 12:03:24;;;;;;;;;;;;;;;24.09;51.38;100326.23;1661597;86;20568;-60
2022/05/27 12:06:45;;;;;;;;;;;;;;;24.01;51.15;100323.91;1647434;87;20204;-61
2022/05/27 12:10:00;;;;;;;;;;;;;;;23.98;51.03;100339.28;1652336;87;20621;-60
2022/05/27 12:13:17;;;;;;;;;;;;;;;24.01;50.89;100334.55;1647385;87;20281;-60
2022/05/27 12:16:37;;;;;;;;;;;;;;;24.07;50.79;100320.89;1648892;86;20225;-60
2022/05/27 12:19:44;;;;;;;;;;;;;;;24.12;50.68;100315.36;1667275;85;20226;-59
2022/05/27 12:22:47;;;;;;;;;;;;;;;24.07;50.53;100311.69;1649701;85;20219;-60
2022/05/27 12:25:57;;;;;;;;;;;;;;;24.10;50.40;100309.17;1668654;84;20484;-62
2022/05/27 12:29:05;;;;;;;;;;;;;;;24.18;50.22;100314.28;1644014;87;20248;-61
2022/05/27 12:32:14;;;;;;;;;;;;;;;24.28;50.12;100307.39;1649942;86;20240;-61
2022/05/27 12:35:42;;;;;;;;;;;;;;;24.27;49.96;100295.92;1646290;87;20246;-61
2022/05/27 12:38:53;;;;;;;;;;;;;;;24.22;49.80;100300.07;1647600;87;20236;-62
2022/05/27 12:42:13;;;;;;;;;;;;;;;24.18;49.69;100291.08;1647835;87;20296;-62
2022/05/27 12:45:39;;;;;;;;;;;;;;;24.19;49.59;100292.21;1628921;86;20632;-62
2022/05/27 12:48:49;;;;;;;;;;;;;;;24.31;49.52;100290.64;1661036;84;20203;-61
2022/05/27 12:51:56;;;;;;;;;;;;;;;24.28;49.32;100284.15;1651347;86;20222;-63
2022/05/27 12:55:04;;;;;;;;;;;;;;;24.25;49.26;100274.34;1641087;84;20212;-62
2022/05/27 13:01:40;;;;;;;;;;;;;;;24.01;48.96;100283.35;1676866;84;20207;-59
2022/05/27 13:05:04;;;;;;;;;;;;;;;23.89;48.85;100280.72;1663079;84;20362;-63
2022/05/27 13:08:20;;;;;;;;;;;;;;;23.85;48.74;100275.92;1677138;85;20255;-61
2022/05/27 13:11:43;;;;;;;;;;;;;;;23.86;48.73;100270.06;1709256;82;20207;-61
2022/05/27 13:14:51;;;;;;;;;;;;;;;23.98;48.66;100268.50;1706785;82;20623;-63
2022/05/27 13:18:01;;;;;;;;;;;;;;;23.98;48.53;100266.56;1700702;82;20216;-60
2022/05/27 13:21:17;;;;;;;;;;;;;;;23.93;48.42;100260.88;1705114;82;20220;-62
2022/05/27 13:24:32;;;;;;;;;;;;;;;23.89;48.30;100267.28;1703933;82;20240;-62
2022/05/27 13:27:36;;;;;;;;;;;;;;;23.84;48.14;100253.24;1690814;82;20656;-63
2022/05/27 13:31:12;;;;;;;;;;;;;;;23.86;48.09;100256.63;1703222;82;20220;-61
2022/05/27 13:34:28;;;;;;;;;;;;;;;23.88;48.00;100253.84;1706942;82;20248;-62
2022/05/27 13:37:48;;;;;;;;;;;;;;;23.89;47.90;100245.76;1702510;82;20256;-61
2022/05/27 13:40:53;;;;;;;;;;;;;;;23.85;47.80;100238.17;1702238;82;20473;-63
2022/05/27 13:44:01;;;;;;;;;;;;;;;23.84;47.76;100241.52;1688515;82;20247;-61
2022/05/27 13:47:06;;;;;;;;;;;;;;;23.84;47.69;100238.72;1684213;83;20222;-65
2022/05/27 13:50:11;;;;;;;;;;;;;;;23.92;47.62;100236.84;1651403;85;20213;-63
2022/05/27 13:53:28;;;;;;;;;;;;;;;24.01;47.54;100232.46;1650808;85;20221;-62
2022/05/27 13:56:37;;;;;;;;;;;;;;;24.02;47.35;100227.17;1698094;82;20529;-65
2022/05/27 13:59:52;;;;;;;;;;;;;;;23.97;47.23;100219.28;1692902;82;20206;-64
2022/05/27 14:03:00;;;;;;;;;;;;;;;24.05;47.21;100210.40;1689483;82;20495;-60
2022/05/27 14:06:09;;;;;;;;;;;;;;;24.06;47.15;100219.92;1693269;82;20535;-64
2022/05/27 14:09:24;;;;;;;;;;;;;;;24.02;46.95;100219.33;1690504;82;20309;-64
2022/05/27 14:12:32;;;;;;;;;;;;;;;23.85;46.86;100225.59;1677700;82;20585;-61
2022/05/27 14:15:39;;;;;;;;;;;;;;;23.77;46.85;100210.13;1661830;82;20640;-63
2022/05/27 14:18:48;;;;;;;;;;;;;;;23.75;46.81;100208.72;1698857;82;20216;-60
2022/05/27 14:25:51;;;;;;;;;;;;;;;23.52;46.64;100199.56;1703318;82;20208;-63
2022/05/27 14:29:21;;;;;;;;;;;;;;;23.49;46.61;100207.08;1698112;83;20260;-63
2022/05/27 14:32:27;;;;;;;;;;;;;;;23.42;46.52;100196.66;1699984;84;20217;-62
2022/05/27 14:35:37;;;;;;;;;;;;;;;23.37;46.47;100196.59;1696502;84;20603;-63
2022/05/27 14:38:44;;;;;;;;;;;;;;;23.37;46.48;100199.97;1692094;82;20629;-63
2022/05/27 14:41:50;;;;;;;;;;;;;;;23.34;46.41;100192.12;1679136;85;20253;-61
2022/05/27 14:44:56;;;;;;;;;;;;;;;23.29;46.37;100189.27;1678860;85;20222;-65
2022/05/27 14:48:02;;;;;;;;;;;;;;;23.23;46.26;100195.88;1679591;85;20210;-63
2022/05/27 14:51:26;;;;;;;;;;;;;;;23.13;46.24;100183.19;1698825;84;20834;-63
2022/05/27 14:54:39;;;;;;;;;;;;;;;23.05;46.20;100192.02;1678761;85;20242;-61
2022/05/27 14:57:53;;;;;;;;;;;;;;;22.96;46.20;100178.24;1694248;83;20659;-63
2022/05/27 15:00:58;;;;;;;;;;;;;;;22.86;46.23;100175.32;1705729;82;20255;-62
2022/05/27 15:04:27;;;;;;;;;;;;;;;22.78;46.22;100172.98;1703423;82;20537;-63
2022/05/27 15:07:29;;;;;;;;;;;;;;;22.72;46.20;100174.03;1706870;82;20275;-64
2022/05/27 15:10:35;;;;;;;;;;;;;;;22.64;46.21;100166.97;1701865;82;20593;-64
2022/05/27 15:14:03;;;;;;;;;;;;;;;22.57;46.19;100164.05;1683580;85;20207;-66
2022/05/27 15:17:11;;;;;;;;;;;;;;;22.52;46.18;100168.16;1696746;82;20208;-65
2022/05/27 15:20:24;;;;;;;;;;;;;;;22.45;46.19;100156.34;1706680;84;20216;-64
2022/05/27 15:23:30;;;;;;;;;;;;;;;22.41;46.20;100155.15;1699472;84;20612;-63
2022/05/27 15:33:42;;;;;;;;;;;;;;;22.38;46.23;100138.93;1693374;84;20214;-61
2022/05/27 15:36:37;;;;;;;;;;;;;;;22.39;46.21;100133.66;1684044;85;20241;-62
2022/05/27 15:39:41;;;;;;;;;;;;;;;22.41;46.23;100131.44;1684678;85;20562;-65
2022/05/27 15:42:55;;;;;;;;;;;;;;;22.45;46.19;100125.65;1688406;84;20243;-63
2022/05/27 15:46:01;;;;;;;;;;;;;;;22.45;46.15;100120.07;1707233;84;20216;-63
2022/05/27 15:49:07;;;;;;;;;;;;;;;22.46;46.13;100123.14;1704046;84;20584;-62
2022/05/27 15:52:16;;;;;;;;;;;;;;;22.44;46.13;100119.79;1685628;85;20275;-63
2022/05/27 15:55:21;;;;;;;;;;;;;;;22.42;46.13;100121.41;1685532;85;20252;-65
2022/05/27 15:58:20;;;;;;;;;;;;;;;22.40;46.11;100114.42;1655892;85;20570;-66
2022/05/27 16:01:26;;;;;;;;;;;;;;;22.35;46.12;100107.38;1670618;86;20251;-59
2022/05/27 16:04:34;;;;;;;;;;;;;;;22.27;46.13;100100.84;1659526;85;20243;-64
2022/05/27 16:07:43;;;;;;;;;;;;;;;22.19;46.16;100100.21;1653509;85;20589;-65
2022/05/27 16:11:06;;;;;;;;;;;;;;;22.13;46.19;100099.00;1630490;86;20734;-64
2022/05/27 16:14:12;;;;;;;;;;;;;;;22.06;46.21;100103.37;1661720;85;20219;-63
2022/05/27 16:20:45;;;;;;;;;;;;;;;21.95;46.32;100095.11;1581667;89;20653;-62
2022/05/27 16:23:53;;;;;;;;;;;;;;;21.89;46.35;100096.14;1653592;85;20221;-63
2022/05/27 16:27:00;;;;;;;;;;;;;;;21.82;46.40;100089.34;1648253;87;20221;-63
2022/05/27 16:30:06;;;;;;;;;;;;;;;21.76;46.43;100087.59;1653003;85;20253;-62
2022/05/27 16:33:12;;;;;;;;;;;;;;;21.70;46.50;100087.73;1656559;85;20257;-62
2022/05/27 16:36:19;;;;;;;;;;;;;;;21.63;46.56;100082.33;1641382;87;20229;-63
2022/05/27 16:39:25;;;;;;;;;;;;;;;21.57;46.61;100083.89;1645844;87;20613;-59
2022/05/27 16:42:32;;;;;;;;;;;;;;;21.50;46.65;100075.70;1645505;87;20265;-60
2022/05/27 16:45:50;;;;;;;;;;;;;;;21.45;46.70;100072.87;1644867;87;20213;-58
2022/05/27 16:48:57;;;;;;;;;;;;;;;21.38;46.76;100071.33;1643475;87;20217;-61
2022/05/27 16:52:02;;;;;;;;;;;;;;;21.30;46.83;100073.99;1651162;87;20207;-60
2022/05/27 16:55:05;;;;;;;;;;;;;;;21.23;46.89;100071.09;1646251;87;20263;-60
2022/05/27 16:58:12;;;;;;;;;;;;;;;21.16;46.93;100065.68;1649482;85;20223;-60
2022/05/27 17:01:18;;;;;;;;;;;;;;;21.09;47.00;100059.98;1677120;85;20214;-60
2022/05/27 17:04:24;;;;;;;;;;;;;;;21.02;47.07;100054.58;1682839;85;20213;-60
2022/05/27 17:07:29;;;;;;;;;;;;;;;20.98;47.13;100053.38;1682841;85;20256;-60
2022/05/27 17:10:34;;;;;;;;;;;;;;;20.93;47.18;100046.86;1683171;85;20216;-61
2022/05/27 17:13:41;;;;;;;;;;;;;;;20.87;47.22;100040.34;1653051;87;20219;-59
2022/05/27 17:16:47;;;;;;;;;;;;;;;20.82;47.29;100046.38;1625158;87;20223;-63
2022/05/27 17:19:53;;;;;;;;;;;;;;;20.76;47.36;100037.08;1639520;87;20248;-63
2022/05/27 17:22:57;;;;;;;;;;;;;;;20.70;47.44;100042.26;1642009;87;20234;-63
2022/05/27 17:26:01;;;;;;;;;;;;;;;20.64;47.52;100034.92;1629302;88;20224;-63
2022/05/27 17:29:06;;;;;;;;;;;;;;;20.57;47.60;100021.70;1627911;87;20524;-64
2022/05/27 17:32:15;;;;;;;;;;;;;;;20.50;47.67;100022.42;1630077;87;20507;-65
2022/05/27 17:35:28;;;;;;;;;;;;;;;20.43;47.78;100031.44;1628053;86;20204;-64
2022/05/27 17:38:35;;;;;;;;;;;;;;;20.35;47.86;100034.08;1629007;88;20254;-63
2022/05/27 17:41:41;;;;;;;;;;;;;;;20.29;47.91;100035.08;1628180;88;20485;-62
2022/05/27 17:44:48;;;;;;;;;;;;;;;20.23;48.01;100036.60;1629540;88;20211;-61
2022/05/27 17:51:24;;;;;;;;;;;;;;;20.13;48.18;100039.12;1627690;88;20215;-62
2022/05/27 17:54:31;;;;;;;;;;;;;;;20.07;48.26;100043.75;1628546;88;20211;-63
2022/05/27 17:57:34;;;;;;;;;;;;;;;20.03;48.35;100045.85;1628687;88;20577;-61
2022/05/27 18:00:40;;;;;;;;;;;;;;;19.97;48.42;100049.08;1651416;83;20445;-62
2022/05/27 18:03:46;;;;;;;;;;;;;;;19.93;48.50;100047.86;1658098;86;20273;-64
2022/05/27 18:06:49;;;;;;;;;;;;;;;19.89;48.58;100038.88;1659010;85;20225;-61
2022/05/27 18:09:54;;;;;;;;;;;;;;;19.85;48.66;100044.64;1658547;86;20201;-63
2022/05/27 18:13:02;;;;;;;;;;;;;;;19.80;48.76;100045.91;1656926;86;20213;-63
2022/05/27 18:16:13;;;;;;;;;;;;;;;19.76;48.83;100044.69;1656351;84;20280;-63
2022/05/27 18:19:31;;;;;;;;;;;;;;;19.70;48.96;100041.50;1601470;88;20225;-64
2022/05/27 18:22:38;;;;;;;;;;;;;;;19.66;49.05;100038.39;1644099;87;20410;-63
2022/05/27 18:25:42;;;;;;;;;;;;;;;19.62;49.14;100036.31;1637777;86;20227;-63
2022/05/27 18:28:49;;;;;;;;;;;;;;;19.58;49.24;100033.20;1629069;88;20610;-64
2022/05/27 18:31:53;;;;;;;;;;;;;;;19.56;49.32;100028.96;1604726;88;20217;-63
2022/05/27 18:34:56;;;;;;;;;;;;;;;19.53;49.42;100020.58;1603222;89;20550;-63
2022/05/27 18:38:03;;;;;;;;;;;;;;;19.50;49.52;100022.99;1620228;88;20232;-63
2022/05/27 18:41:09;;;;;;;;;;;;;;;19.49;49.58;100025.48;1630490;87;20223;-63
2022/05/27 18:44:17;;;;;;;;;;;;;;;19.45;49.67;100014.54;1637476;88;20575;-63
2022/05/27 18:47:21;;;;;;;;;;;;;;;19.44;49.74;100007.31;1634645;87;20630;-63
2022/05/27 18:50:28;;;;;;;;;;;;;;;19.41;49.81;99993.92;1633923;87;20200;-63
2022/05/27 18:53:36;;;;;;;;;;;;;;;19.41;49.86;100003.63;1632497;87;20239;-62
2022/05/27 18:56:44;;;;;;;;;;;;;;;19.38;49.95;99991.63;1637960;87;20252;-64
2022/05/27 18:59:49;;;;;;;;;;;;;;;19.38;50.03;99993.02;1632058;88;20219;-62
2022/05/27 19:02:53;;;;;;;;;;;;;;;19.37;50.08;99992.69;1691992;84;20551;-63
2022/05/27 19:05:58;;;;;;;;;;;;;;;19.34;50.14;99985.14;1657864;86;20256;-62
2022/05/27 19:09:05;;;;;;;;;;;;;;;19.31;50.20;99982.86;1709862;84;20212;-61
2022/05/27 19:12:14;;;;;;;;;;;;;;;19.30;50.26;99977.55;1709996;84;20248;-62
2022/05/27 19:15:19;;;;;;;;;;;;;;;19.26;50.31;99969.39;1701833;83;20224;-62
2022/05/27 19:21:16;;;;;;;;;;;;;;;19.23;50.35;99970.69;1691459;85;20184;-61
2022/05/27 19:21:31;;;;;;;;;;;;;;;19.20;50.42;99965.63;1696324;84;20209;-62
2022/05/27 19:24:38;;;;;;;;;;;;;;;19.19;50.49;99961.71;1697181;84;20216;-63
2022/05/27 19:27:44;;;;;;;;;;;;;;;19.16;50.52;99956.11;1692715;84;20197;-62
2022/05/27 19:30:49;;;;;;;;;;;;;;;19.14;50.56;99952.73;1691415;85;20248;-61
2022/05/27 19:33:54;;;;;;;;;;;;;;;19.11;50.62;99946.28;1691348;85;20240;-61
2022/05/27 19:37:00;;;;;;;;;;;;;;;19.07;50.65;99939.54;1691582;85;20244;-61
2022/05/27 19:40:06;;;;;;;;;;;;;;;19.04;50.71;99933.05;1691360;85;20556;-63
2022/05/27 19:43:12;;;;;;;;;;;;;;;19.02;50.76;99926.08;1709475;84;20590;-62
2022/05/27 19:46:24;;;;;;;;;;;;;;;18.98;50.81;99929.86;1710564;84;20228;-62
2022/05/27 19:49:29;;;;;;;;;;;;;;;18.94;50.87;99928.67;1710163;84;20260;-63
2022/05/27 19:52:38;;;;;;;;;;;;;;;18.87;50.91;99919.61;1709817;84;20220;-63
2022/05/27 19:55:43;;;;;;;;;;;;;;;18.81;50.97;99923.35;1693090;85;20197;-61
2022/05/27 20:05:39;;;;;;;;;;;;;;;18.64;51.14;99911.29;1680980;85;20539;-62
2022/05/27 20:08:44;;;;;;;;;;;;;;;18.58;51.18;99910.02;1680405;85;20222;-63
2022/05/27 20:11:50;;;;;;;;;;;;;;;18.52;51.25;99895.72;1680611;85;20218;-62
2022/05/27 20:14:57;;;;;;;;;;;;;;;18.45;51.32;99898.60;1680557;85;20562;-62
2022/05/27 20:18:02;;;;;;;;;;;;;;;18.40;51.38;99888.77;1680432;85;20226;-63
2022/05/27 20:21:06;;;;;;;;;;;;;;;18.36;51.46;99883.91;1680767;85;20571;-63
2022/05/27 20:24:14;;;;;;;;;;;;;;;18.32;51.53;99877.14;1680971;85;20202;-64
2022/05/27 20:27:21;;;;;;;;;;;;;;;18.29;51.58;99873.46;1681040;85;20242;-62
2022/05/27 20:30:28;;;;;;;;;;;;;;;18.28;51.66;99875.41;1680955;85;20198;-61
2022/05/27 20:33:34;;;;;;;;;;;;;;;18.28;51.72;99874.02;1680980;85;20214;-61
2022/05/27 20:40:03;;;;;;;;;;;;;;;18.28;51.84;99868.48;1685231;85;20274;-63
2022/05/27 20:43:09;;;;;;;;;;;;;;;18.31;51.89;99874.08;1691123;85;20231;-64
2022/05/27 20:46:15;;;;;;;;;;;;;;;18.31;51.94;99866.62;1691196;84;20527;-64
2022/05/27 20:49:20;;;;;;;;;;;;;;;18.34;51.98;99868.05;1690985;85;20277;-63
2022/05/27 20:52:25;;;;;;;;;;;;;;;18.34;52.02;99849.51;1691149;84;20230;-63
2022/05/27 20:55:30;;;;;;;;;;;;;;;18.35;52.06;99842.88;1691593;84;20194;-62
2022/05/27 20:58:36;;;;;;;;;;;;;;;18.36;52.10;99839.00;1691119;84;20261;-63
2022/05/27 21:01:40;;;;;;;;;;;;;;;18.38;52.16;99853.51;1691191;84;20313;-63
2022/05/27 21:04:54;;;;;;;;;;;;;;;18.39;52.19;99843.27;1705675;84;20549;-63
2022/05/27 21:07:58;;;;;;;;;;;;;;;18.39;52.25;99830.27;1691424;85;20214;-63
2022/05/27 21:11:06;;;;;;;;;;;;;;;18.37;52.29;99825.47;1680794;85;20195;-62
2022/05/27 21:14:12;;;;;;;;;;;;;;;18.37;52.35;99831.02;1662145;86;20517;-64
2022/05/27 21:17:17;;;;;;;;;;;;;;;18.37;52.41;99816.30;1688908;85;20226;-63
2022/05/27 21:20:22;;;;;;;;;;;;;;;18.36;52.46;99816.83;1691392;85;20263;-63
2022/05/27 21:23:29;;;;;;;;;;;;;;;18.38;52.55;99816.63;1680854;85;20187;-63
2022/05/27 21:26:36;;;;;;;;;;;;;;;18.38;52.60;99793.92;1662257;86;20497;-62
2022/05/27 21:29:43;;;;;;;;;;;;;;;18.37;52.65;99789.44;1691389;85;20746;-63
2022/05/27 21:32:50;;;;;;;;;;;;;;;18.36;52.69;99779.98;1691532;85;20265;-64
2022/05/27 21:35:55;;;;;;;;;;;;;;;18.32;52.74;99782.38;1680749;85;20259;-62
2022/05/27 21:39:00;;;;;;;;;;;;;;;18.30;52.81;99778.18;1691370;85;20214;-62
2022/05/27 21:42:09;;;;;;;;;;;;;;;18.26;52.84;99772.27;1680752;85;20218;-63
2022/05/27 21:45:14;;;;;;;;;;;;;;;18.21;52.90;99776.30;1691417;85;20211;-63
2022/05/27 21:48:21;;;;;;;;;;;;;;;18.17;53.03;99777.84;1691394;85;20306;-61
2022/05/27 21:51:27;;;;;;;;;;;;;;;18.12;53.08;99774.97;1680768;85;20267;-62
2022/05/27 21:54:32;;;;;;;;;;;;;;;18.06;53.18;99767.59;1662181;86;20462;-62
2022/05/27 21:57:37;;;;;;;;;;;;;;;18.02;53.28;99771.08;1691406;85;20558;-65
2022/05/27 22:00:44;;;;;;;;;;;;;;;17.97;53.41;99771.80;1680834;85;20202;-62
2022/05/27 22:03:49;;;;;;;;;;;;;;;17.93;53.54;99763.13;1680799;84;20198;-63
2022/05/27 22:06:55;;;;;;;;;;;;;;;17.89;53.66;99756.38;1710678;84;20533;-63
2022/05/27 22:13:23;;;;;;;;;;;;;;;17.83;53.97;99746.80;1685379;85;20183;-62
2022/05/27 22:16:28;;;;;;;;;;;;;;;17.80;54.14;99735.67;1692201;84;20239;-63
2022/05/27 22:19:33;;;;;;;;;;;;;;;17.76;54.26;99733.06;1710382;84;20201;-61
2022/05/27 22:22:38;;;;;;;;;;;;;;;17.72;54.37;99727.70;1693385;85;20233;-62
2022/05/27 22:25:44;;;;;;;;;;;;;;;17.68;54.49;99728.39;1685338;85;20202;-64
2022/05/27 22:28:49;;;;;;;;;;;;;;;17.63;54.63;99724.14;1693596;85;20210;-61
2022/05/27 22:31:54;;;;;;;;;;;;;;;17.60;54.77;99729.59;1693621;85;20198;-63
2022/05/27 22:35:01;;;;;;;;;;;;;;;17.57;54.92;99720.91;1693576;85;20539;-63
2022/05/27 22:38:08;;;;;;;;;;;;;;;17.56;55.06;99723.39;1693494;85;20218;-63
2022/05/27 22:41:13;;;;;;;;;;;;;;;17.56;55.21;99712.31;1693608;85;20210;-63
2022/05/27 22:44:18;;;;;;;;;;;;;;;17.57;55.38;99702.92;1693576;85;20217;-62
2022/05/27 22:47:24;;;;;;;;;;;;;;;17.61;55.56;99695.84;1693691;85;20186;-63
2022/05/27 22:50:30;;;;;;;;;;;;;;;17.63;55.70;99695.89;1693610;85;20202;-64
2022/05/27 22:53:36;;;;;;;;;;;;;;;17.64;55.82;99690.69;1693700;85;20205;-62
2022/05/27 22:56:41;;;;;;;;;;;;;;;17.68;55.98;99686.88;1693585;85;20230;-63
2022/05/27 22:59:46;;;;;;;;;;;;;;;17.69;56.11;99681.13;1693589;85;20278;-64
2022/05/27 23:02:55;;;;;;;;;;;;;;;17.73;56.27;99684.23;1693656;85;20201;-62
2022/05/27 23:05:58;;;;;;;;;;;;;;;17.76;56.39;99687.91;1696171;84;20201;-63
2022/05/27 23:09:04;;;;;;;;;;;;;;;17.78;56.54;99676.06;1695725;83;20238;-63
2022/05/27 23:18:18;;;;;;;;;;;;;;;17.81;56.67;99676.97;1691223;84;20254;-60
2022/05/27 23:18:42;;;;;;;;;;;;;;;17.86;56.90;99675.70;1694583;84;20290;-64
2022/05/27 23:21:48;;;;;;;;;;;;;;;17.88;57.01;99677.70;1688268;84;20209;-63
2022/05/27 23:24:52;;;;;;;;;;;;;;;17.88;57.13;99679.09;1698567;84;20189;-62
2022/05/27 23:27:59;;;;;;;;;;;;;;;17.88;57.24;99673.55;1698849;84;20308;-62
2022/05/27 23:31:06;;;;;;;;;;;;;;;17.87;57.34;99685.69;1698816;84;20269;-64
2022/05/27 23:34:13;;;;;;;;;;;;;;;17.85;57.44;99677.62;1698885;84;20272;-64
2022/05/27 23:37:20;;;;;;;;;;;;;;;17.83;57.54;99773.95;1698556;84;20612;-63
2022/05/27 23:40:25;;;;;;;;;;;;;;;17.81;57.67;99822.33;1688682;84;20239;-61
2022/05/27 23:43:30;;;;;;;;;;;;;;;17.76;57.80;99813.88;1671337;85;20227;-62
2022/05/27 23:46:46;;;;;;;;;;;;;;;17.74;57.92;99796.69;1690127;84;20194;-62
2022/05/27 23:49:56;;;;;;;;;;;;;;;17.71;58.04;99782.75;1677913;85;20207;-64
2022/05/27 23:53:02;;;;;;;;;;;;;;;17.68;58.13;99783.77;1677970;85;20219;-62
2022/05/27 23:56:12;;;;;;;;;;;;;;;17.64;58.23;99780.64;1677291;85;20227;-64
2022/05/27 23:59:17;;;;;;;;;;;;;;;17.61;58.31;99778.36;1677755;85;20211;-62
